TAF KTRM
KTRM 072335Z 0800/0824 33004KT P6SM OVC080 FM081000 VRB04KT P6SM SCT250 FM082100 12005KT P6SM SKC=
METAR KTRM
WC KTRM
WS KTRM
WV KTRM